地図

経路データ

SID SEASON NUMBER BASIN SUBBASIN NAME ISO_TIME NATURE LAT LON WMO_WIND WMO_PRES WMO_AGENCY TRACK_TYPE DIST2LAND LANDFALL IFLAG USA_AGENCY USA_ATCF_ID USA_LAT USA_LON USA_RECORD USA_STATUS USA_WIND USA_PRES USA_SSHS USA_R34_NE USA_R34_SE USA_R34_SW USA_R34_NW USA_R50_NE USA_R50_SE USA_R50_SW USA_R50_NW USA_R64_NE USA_R64_SE USA_R64_SW USA_R64_NW USA_POCI USA_ROCI USA_RMW USA_EYE TOKYO_LAT TOKYO_LON TOKYO_GRADE TOKYO_WIND TOKYO_PRES TOKYO_R50_DIR TOKYO_R50_LONG TOKYO_R50_SHORT TOKYO_R30_DIR TOKYO_R30_LONG TOKYO_R30_SHORT TOKYO_LAND CMA_LAT CMA_LON CMA_CAT CMA_WIND CMA_PRES HKO_LAT HKO_LON HKO_CAT HKO_WIND HKO_PRES NEWDELHI_LAT NEWDELHI_LON NEWDELHI_GRADE NEWDELHI_WIND NEWDELHI_PRES NEWDELHI_CI NEWDELHI_DP NEWDELHI_POCI REUNION_LAT REUNION_LON REUNION_TYPE REUNION_WIND REUNION_PRES REUNION_TNUM REUNION_CI REUNION_RMW REUNION_R34_NE REUNION_R34_SE REUNION_R34_SW REUNION_R34_NW REUNION_R50_NE REUNION_R50_SE REUNION_R50_SW REUNION_R50_NW REUNION_R64_NE REUNION_R64_SE REUNION_R64_SW REUNION_R64_NW BOM_LAT BOM_LON BOM_TYPE BOM_WIND BOM_PRES BOM_TNUM BOM_CI BOM_RMW BOM_R34_NE BOM_R34_SE BOM_R34_SW BOM_R34_NW BOM_R50_NE BOM_R50_SE BOM_R50_SW BOM_R50_NW BOM_R64_NE BOM_R64_SE BOM_R64_SW BOM_R64_NW BOM_ROCI BOM_POCI BOM_EYE BOM_POS_METHOD BOM_PRES_METHOD NADI_LAT NADI_LON NADI_CAT NADI_WIND NADI_PRES WELLINGTON_LAT WELLINGTON_LON WELLINGTON_WIND WELLINGTON_PRES DS824_LAT DS824_LON DS824_STAGE DS824_WIND DS824_PRES TD9636_LAT TD9636_LON TD9636_STAGE TD9636_WIND TD9636_PRES TD9635_LAT TD9635_LON TD9635_WIND TD9635_PRES TD9635_ROCI NEUMANN_LAT NEUMANN_LON NEUMANN_CLASS NEUMANN_WIND NEUMANN_PRES MLC_LAT MLC_LON MLC_CLASS MLC_WIND MLC_PRES USA_GUST BOM_GUST BOM_GUST_PER REUNION_GUST REUNION_GUST_PER USA_SEAHGT USA_SEARAD_NE USA_SEARAD_SE USA_SEARAD_SW USA_SEARAD_NW STORM_SPEED STORM_DIR
1938119N10125 1938 24 WP MM NOT_NAMED 1938-04-29 10:00:00 NR 10.0000 124.800 main 15 15 __________O___ -1 10.0000 124.800 2 5 314
1938119N10125 1938 24 WP MM NOT_NAMED 1938-04-29 12:00:00 NR 10.1133 124.680 main 15 15 __________P___ -1 10.1133 124.680 2 5 314
1938119N10125 1938 24 WP MM NOT_NAMED 1938-04-29 15:00:00 NR 10.2969 124.483 main 24 21 __________P___ -1 10.2969 124.483 2 6 313
1938119N10125 1938 24 WP MM NOT_NAMED 1938-04-29 18:00:00 NR 10.5160 124.241 main 21 0 __________P___ -1 10.5160 124.241 2 7 312
1938119N10125 1938 24 WP MM NOT_NAMED 1938-04-29 21:00:00 NR 10.7918 123.926 main 0 0 __________P___ -1 10.7918 123.926 2 9 312
1938119N10125 1938 24 WP MM NOT_NAMED 1938-04-29 22:00:00 NR 10.9000 123.800 main 10 10 __________O___ -1 10.9000 123.800 2 11 311
1938119N10125 1938 24 WP MM NOT_NAMED 1938-04-30 00:00:00 NR 11.1410 123.513 main 22 0 __________P___ -1 11.1410 123.513 2 12 309
1938119N10125 1938 24 WP MM NOT_NAMED 1938-04-30 03:00:00 NR 11.5286 123.000 main 10 10 __________P___ -1 11.5286 123.000 2 13 304
1938119N10125 1938 24 WP MM NOT_NAMED 1938-04-30 06:00:00 NR 11.8867 122.402 main 22 15 __________P___ -1 11.8867 122.402 2 14 297
1938119N10125 1938 24 WP MM NOT_NAMED 1938-04-30 09:00:00 NR 12.1469 121.735 main 35 15 __________P___ -1 12.1469 121.735 2 14 290
1938119N10125 1938 24 WP MM NOT_NAMED 1938-04-30 10:00:00 NR 12.2000 121.500 main 15 0 __________O___ -1 12.2000 121.500 2 14 275
1938119N10125 1938 24 WP MM NOT_NAMED 1938-04-30 12:00:00 NR 12.2095 121.002 main 10 10 __________P___ -1 12.2095 121.002 2 15 266
1938119N10125 1938 24 WP MM NOT_NAMED 1938-04-30 15:00:00 NR 12.1097 120.204 main 93 68 __________P___ -1 12.1097 120.204 2 16 260
1938119N10125 1938 24 WP MM NOT_NAMED 1938-04-30 18:00:00 NR 11.9338 119.396 main 68 68 __________P___ -1 11.9338 119.396 2 16 257
1938119N10125 1938 24 WP MM NOT_NAMED 1938-04-30 21:00:00 NR 11.7507 118.634 main 110 103 __________P___ -1 11.7507 118.634 2 15 257
1938119N10125 1938 24 WP MM NOT_NAMED 1938-04-30 22:00:00 NR 11.7000 118.400 main 122 122 __________O___ -1 11.7000 118.400 2 13 260
1938119N10125 1938 24 WP MM NOT_NAMED 1938-05-01 00:00:00 NR 11.6388 117.983 main 159 169 __________P___ -1 11.6388 117.983 2 12 262
1938119N10125 1938 24 WP MM NOT_NAMED 1938-05-01 03:00:00 NR 11.5725 117.419 main 221 221 __________P___ -1 11.5725 117.419 2 11 265
1938119N10125 1938 24 WP MM NOT_NAMED 1938-05-01 06:00:00 NR 11.5476 116.914 main 260 260 __________P___ -1 11.5476 116.914 2 10 270
1938119N10125 1938 24 WP MM NOT_NAMED 1938-05-01 09:00:00 NR 11.5764 116.449 main 309 309 __________P___ -1 11.5764 116.449 2 9 275
1938119N10125 1938 24 WP MM NOT_NAMED 1938-05-01 10:00:00 NR 11.6000 116.300 main 314 314 __________O___ -1 11.6000 116.300 3 10 280
1938119N10125 1938 24 WP MM NOT_NAMED 1938-05-01 12:00:00 NR 11.6630 115.968 main 342 348 __________P___ -1 11.6630 115.968 3 10 285
1938119N10125 1938 24 WP MM NOT_NAMED 1938-05-01 15:00:00 NR 11.8080 115.494 main 384 384 __________P___ -1 11.8080 115.494 3 9 291
1938119N10125 1938 24 WP MM NOT_NAMED 1938-05-01 18:00:00 NR 11.9995 115.066 main 430 438 __________P___ -1 11.9995 115.066 3 9 298
1938119N10125 1938 24 WP MM NOT_NAMED 1938-05-01 21:00:00 NR 12.2218 114.703 main 477 477 __________P___ -1 12.2218 114.703 3 8 303
1938119N10125 1938 24 WP MM NOT_NAMED 1938-05-01 22:00:00 NR 12.3000 114.600 main 492 492 __________O___ -1 12.3000 114.600 4 7 308
1938119N10125 1938 24 WP MM NOT_NAMED 1938-05-02 00:00:00 NR 12.4362 114.418 main 516 510 __________P___ -1 12.4362 114.418 4 6 313
1938119N10125 1938 24 WP MM NOT_NAMED 1938-05-02 03:00:00 NR 12.6593 114.209 main 510 498 __________P___ -1 12.6593 114.209 4 6 323
1938119N10125 1938 24 WP MM NOT_NAMED 1938-05-02 06:00:00 NR 12.9106 114.055 main 498 478 __________P___ -1 12.9106 114.055 4 6 334
1938119N10125 1938 24 WP MM NOT_NAMED 1938-05-02 09:00:00 NR 13.1961 113.936 main 478 478 __________P___ -1 13.1961 113.936 4 6 338
1938119N10125 1938 24 WP MM NOT_NAMED 1938-05-02 10:00:00 NR 13.3000 113.900 main 478 469 __________O___ -1 13.3000 113.900 4 7 340
1938119N10125 1938 24 WP MM NOT_NAMED 1938-05-02 12:00:00 NR 13.5136 113.811 main 470 463 __________P___ -1 13.5136 113.811 4 7 341
1938119N10125 1938 24 WP MM NOT_NAMED 1938-05-02 15:00:00 NR 13.8653 113.696 main 468 463 __________P___ -1 13.8653 113.696 4 8 345
1938119N10125 1938 24 WP MM NOT_NAMED 1938-05-02 18:00:00 NR 14.2491 113.601 main 465 457 __________P___ -1 14.2491 113.601 4 8 348
1938119N10125 1938 24 WP MM NOT_NAMED 1938-05-02 21:00:00 NR 14.6588 113.523 main 461 461 __________P___ -1 14.6588 113.523 4 8 350
1938119N10125 1938 24 WP MM NOT_NAMED 1938-05-02 22:00:00 NR 14.8000 113.500 main 463 461 __________O___ -1 14.8000 113.500 4 9 351
1938119N10125 1938 24 WP MM NOT_NAMED 1938-05-03 00:00:00 NR 15.0855 113.450 main 461 461 __________P___ -1 15.0855 113.450 4 9 351
1938119N10125 1938 24 WP MM NOT_NAMED 1938-05-03 03:00:00 NR 15.5327 113.387 main 470 431 __________P___ -1 15.5327 113.387 4 9 353
1938119N10125 1938 24 WP MM NOT_NAMED 1938-05-03 06:00:00 NR 15.9916 113.340 main 431 400 __________P___ -1 15.9916 113.340 4 9 355
1938119N10125 1938 24 WP MM NOT_NAMED 1938-05-03 09:00:00 NR 16.4497 113.308 main 400 385 __________P___ -1 16.4497 113.308 4 9 357
1938119N10125 1938 24 WP MM NOT_NAMED 1938-05-03 10:00:00 NR 16.6000 113.300 main 385 364 __________O___ -1 16.6000 113.300 4 9 355
1938119N10125 1938 24 WP MM NOT_NAMED 1938-05-03 12:00:00 NR 16.8758 113.258 main 364 331 __________P___ -1 16.8758 113.258 4 8 353
1938119N10125 1938 24 WP MM NOT_NAMED 1938-05-03 15:00:00 NR 17.2830 113.206 main 331 310 __________P___ -1 17.2830 113.206 4 8 356
1938119N10125 1938 24 WP MM NOT_NAMED 1938-05-03 18:00:00 NR 17.6990 113.196 main 310 285 __________P___ -1 17.6990 113.196 4 9 4
1938119N10125 1938 24 WP MM NOT_NAMED 1938-05-03 21:00:00 NR 18.1427 113.258 main 294 282 __________P___ -1 18.1427 113.258 4 9 9
1938119N10125 1938 24 WP MM NOT_NAMED 1938-05-03 22:00:00 NR 18.3000 113.300 main 282 271 __________O___ -1 18.3000 113.300 4 11 18
1938119N10125 1938 24 WP MM NOT_NAMED 1938-05-04 00:00:00 NR 18.6514 113.433 main 271 271 __________P___ -1 18.6514 113.433 4 12 23
1938119N10125 1938 24 WP MM NOT_NAMED 1938-05-04 03:00:00 NR 19.2103 113.709 main 286 256 __________P___ -1 19.2103 113.709 4 13 27
1938119N10125 1938 24 WP MM NOT_NAMED 1938-05-04 06:00:00 NR 19.7794 114.041 main 256 223 __________P___ -1 19.7794 114.041 4 13 30
1938119N10125 1938 24 WP MM NOT_NAMED 1938-05-04 09:00:00 NR 20.3274 114.388 main 223 202 __________P___ -1 20.3274 114.388 4 13 31
1938119N10125 1938 24 WP MM NOT_NAMED 1938-05-04 10:00:00 NR 20.5000 114.500 main 202 172 __________O___ -1 20.5000 114.500 4 12 31
1938119N10125 1938 24 WP MM NOT_NAMED 1938-05-04 12:00:00 NR 20.8256 114.711 main 172 133 __________P___ -1 20.8256 114.711 4 11 31
1938119N10125 1938 24 WP MM NOT_NAMED 1938-05-04 15:00:00 NR 21.2722 115.000 main 133 98 __________P___ -1 21.2722 115.000 4 10 31
1938119N10125 1938 24 WP MM NOT_NAMED 1938-05-04 18:00:00 NR 21.6826 115.265 main 98 67 __________P___ -1 21.6826 115.265 4 9 31
1938119N10125 1938 24 WP MM NOT_NAMED 1938-05-04 21:00:00 NR 22.0721 115.517 main 67 55 __________P___ -1 22.0721 115.517 4 9 31
1938119N10125 1938 24 WP MM NOT_NAMED 1938-05-04 22:00:00 NR 22.2000 115.600 main 55 __________O___ -1 22.2000 115.600 4 9 30

デジタル台風データ・検索

IBTrACS Databaseについて

本データベースは、米国NOAAが公開する1842年以降の世界の熱帯低気圧のベストトラックデータアーカイブInternational Best Track Archive for Climate Stewardship (IBTrACS)を、ウェブで閲覧しやすい形式に変換したものです。

最終更新日:2021-10-21